Time,TemperatureF,DewpointF,PressureIn,WindDirection,WindDirectionDegrees,WindSpeedMPH,WindSpeedGustMPH,Humidity,HourlyPrecipIn,Conditions,Clouds,dailyrainin,SoftwareType,DateUTC
2013-04-04 00:00:00,42.9,21.4,30.16,NE,43,0.0,0.0,42,0.00,CLR,,0.00,WeatherDisplay:10.37,2013-04-04 05:00:00,
2013-04-04 00:05:00,42.9,21.9,30.16,NE,42,0.0,0.0,43,0.00,CLR,,0.00,WeatherDisplay:10.37,2013-04-04 05:05:00,
2013-04-04 00:10:00,42.8,21.8,30.15,NE,43,0.0,0.0,43,0.00,CLR,,0.00,WeatherDisplay:10.37,2013-04-04 05:10:00,
2013-04-04 00:15:00,42.7,21.7,30.15,NE,43,0.0,0.0,43,0.00,CLR,,0.00,WeatherDisplay:10.37,2013-04-04 05:15:00,
2013-04-04 00:20:00,42.5,22.1,30.15,NE,42,0.0,0.0,44,0.00,CLR,,0.00,WeatherDisplay:10.37,2013-04-04 05:20:00,
2013-04-04 00:25:00,42.3,21.9,30.15,NE,42,0.0,0.0,44,0.00,CLR,,0.00,WeatherDisplay:10.37,2013-04-04 05:25:00,
2013-04-04 00:30:00,42.1,22.3,30.15,NE,43,0.0,0.0,45,0.00,CLR,,0.00,WeatherDisplay:10.37,2013-04-04 05:30:00,
2013-04-04 00:35:00,41.9,22.1,30.15,NE,42,0.0,0.0,45,0.00,CLR,,0.00,WeatherDisplay:10.37,2013-04-04 05:35:00,
2013-04-04 00:40:00,41.8,22.0,30.14,NE,43,0.0,0.0,45,0.00,CLR,,0.00,WeatherDisplay:10.37,2013-04-04 05:40:00,
2013-04-04 00:45:00,41.7,21.9,30.14,NE,43,0.0,0.0,45,0.00,CLR,,0.00,WeatherDisplay:10.37,2013-04-04 05:45:00,
2013-04-04 00:50:00,41.5,22.2,30.14,NE,42,1.2,1.2,46,0.00,CLR,,0.00,WeatherDisplay:10.37,2013-04-04 05:50:00,
2013-04-04 00:55:00,41.5,22.7,30.14,NE,43,0.0,0.0,47,0.00,CLR,,0.00,WeatherDisplay:10.37,2013-04-04 05:55:00,
2013-04-04 01:00:00,41.4,22.7,30.14,NE,43,0.0,0.0,47,0.00,CLR,,0.00,WeatherDisplay:10.37,2013-04-04 06:00:00,
2013-04-04 01:05:00,41.3,22.6,30.14,NE,42,0.0,0.0,47,0.00,CLR,,0.00,WeatherDisplay:10.37,2013-04-04 06:05:00,
2013-04-04 01:10:00,41.3,22.6,30.14,NE,43,1.2,0.0,47,0.00,CLR,,0.00,WeatherDisplay:10.37,2013-04-04 06:10:00,
2013-04-04 01:15:00,41.3,22.6,30.14,NE,43,0.0,0.0,47,0.00,CLR,,0.00,WeatherDisplay:10.37,2013-04-04 06:15:00,
2013-04-04 01:20:00,41.3,22.6,30.14,NE,43,0.0,0.0,47,0.00,CLR,,0.00,WeatherDisplay:10.37,2013-04-04 06:20:00,
2013-04-04 01:25:00,41.2,22.5,30.14,NE,43,0.0,0.0,47,0.00,CLR,,0.00,WeatherDisplay:10.37,2013-04-04 06:25:00,
2013-04-04 01:30:00,41.3,23.1,30.14,NE,43,1.2,1.2,48,0.00,CLR,,0.00,WeatherDisplay:10.37,2013-04-04 06:30:00,
2013-04-04 01:35:00,41.4,23.2,30.14,NE,42,1.0,1.0,48,0.00,CLR,,0.00,WeatherDisplay:10.37,2013-04-04 06:35:00,
2013-04-04 01:40:00,41.4,23.2,30.14,NE,42,1.2,1.2,48,0.00,CLR,,0.00,WeatherDisplay:10.37,2013-04-04 06:40:00,
2013-04-04 01:45:00,41.4,23.6,30.14,NE,43,0.0,2.0,49,0.00,CLR,,0.00,WeatherDisplay:10.37,2013-04-04 06:45:00,
2013-04-04 01:50:00,41.3,23.6,30.14,NE,43,1.2,0.0,49,0.00,CLR,,0.00,WeatherDisplay:10.37,2013-04-04 06:50:00,
2013-04-04 01:55:00,41.4,23.6,30.14,NE,42,0.0,0.1,49,0.00,CLR,,0.00,WeatherDisplay:10.37,2013-04-04 06:55:00,
2013-04-04 02:00:00,41.4,23.6,30.13,NE,42,1.2,1.2,49,0.00,CLR,,0.00,WeatherDisplay:10.37,2013-04-04 07:00:00,
2013-04-04 02:05:00,41.2,23.9,30.13,NE,43,2.3,2.3,50,0.00,CLR,,0.00,WeatherDisplay:10.37,2013-04-04 07:05:00,
2013-04-04 02:10:00,41.1,23.9,30.13,NE,43,1.2,0.0,50,0.00,CLR,,0.00,WeatherDisplay:10.37,2013-04-04 07:10:00,
2013-04-04 02:15:00,41.2,23.9,30.13,NE,43,0.0,1.0,50,0.00,CLR,,0.00,WeatherDisplay:10.37,2013-04-04 07:15:00,
2013-04-04 02:20:00,41.2,23.9,30.13,NE,42,0.0,0.0,50,0.00,CLR,,0.00,WeatherDisplay:10.37,2013-04-04 07:20:00,
2013-04-04 02:25:00,41.2,23.9,30.13,NE,42,0.0,0.0,50,0.00,CLR,,0.00,WeatherDisplay:10.37,2013-04-04 07:25:00,
2013-04-04 02:30:00,41.2,23.9,30.13,NE,43,0.0,0.0,50,0.00,CLR,,0.00,WeatherDisplay:10.37,2013-04-04 07:30:00,
2013-04-04 02:35:00,41.3,24.0,30.13,NE,43,0.0,0.0,50,0.00,CLR,,0.00,WeatherDisplay:10.37,2013-04-04 07:35:00,
2013-04-04 02:40:00,41.5,24.2,30.13,NE,43,0.0,0.0,50,0.00,CLR,,0.00,WeatherDisplay:10.37,2013-04-04 07:40:00,
2013-04-04 02:45:00,41.6,24.3,30.13,NE,43,0.0,0.0,50,0.00,CLR,,0.00,WeatherDisplay:10.37,2013-04-04 07:45:00,
2013-04-04 02:50:00,41.6,24.3,30.12,NE,43,0.0,0.0,50,0.00,CLR,,0.00,WeatherDisplay:10.37,2013-04-04 07:50:00,
2013-04-04 02:55:00,41.6,24.3,30.12,NE,42,0.0,0.0,50,0.00,CLR,,0.00,WeatherDisplay:10.37,2013-04-04 07:55:00,
2013-04-04 03:00:00,41.6,24.3,30.12,NE,43,0.0,0.0,50,0.00,CLR,,0.00,WeatherDisplay:10.37,2013-04-04 08:00:00,
2013-04-04 03:05:00,41.6,24.3,30.12,NE,42,0.0,0.0,50,0.00,CLR,,0.00,WeatherDisplay:10.37,2013-04-04 08:05:00,
2013-04-04 03:10:00,41.6,24.8,30.12,NE,42,0.0,0.0,51,0.00,CLR,,0.00,WeatherDisplay:10.37,2013-04-04 08:10:00,
2013-04-04 03:16:00,41.6,24.3,30.12,NE,43,0.0,0.0,50,0.00,CLR,,0.00,WeatherDisplay:10.37,2013-04-04 08:16:00,
2013-04-04 03:21:00,41.7,24.4,30.12,NE,42,0.0,0.0,50,0.00,CLR,,0.00,WeatherDisplay:10.37,2013-04-04 08:21:00,
2013-04-04 03:26:00,41.7,24.4,30.12,NE,43,0.0,0.0,50,0.00,CLR,,0.00,WeatherDisplay:10.37,2013-04-04 08:26:00,
2013-04-04 03:31:00,41.8,24.5,30.12,NE,43,0.0,0.0,50,0.00,CLR,,0.00,WeatherDisplay:10.37,2013-04-04 08:31:00,
2013-04-04 03:36:00,41.8,24.5,30.11,NE,43,0.0,0.0,50,0.00,CLR,,0.00,WeatherDisplay:10.37,2013-04-04 08:36:00,
2013-04-04 03:41:00,41.8,24.5,30.11,NE,43,0.0,0.0,50,0.00,CLR,,0.00,WeatherDisplay:10.37,2013-04-04 08:41:00,
2013-04-04 03:46:00,41.9,24.6,30.11,NE,43,1.2,0.0,50,0.00,CLR,,0.00,WeatherDisplay:10.37,2013-04-04 08:46:00,
2013-04-04 03:51:00,42.0,24.7,30.11,NE,43,1.2,1.2,50,0.00,CLR,,0.00,WeatherDisplay:10.37,2013-04-04 08:51:00,
2013-04-04 03:56:00,42.1,24.8,30.11,NE,43,2.3,2.3,50,0.00,CLR,,0.00,WeatherDisplay:10.37,2013-04-04 08:56:00,
2013-04-04 04:01:00,42.2,24.9,30.11,NE,43,3.5,3.5,50,0.00,CLR,,0.00,WeatherDisplay:10.37,2013-04-04 09:01:00,
2013-04-04 04:06:00,42.1,24.8,30.11,NE,42,1.0,1.0,50,0.00,CLR,,0.00,WeatherDisplay:10.37,2013-04-04 09:06:00,
2013-04-04 04:11:00,42.1,24.8,30.10,NE,43,1.2,1.2,50,0.00,CLR,,0.00,WeatherDisplay:10.37,2013-04-04 09:11:00,
2013-04-04 04:16:00,42.1,24.8,30.10,NE,43,0.0,0.0,50,0.00,CLR,,0.00,WeatherDisplay:10.37,2013-04-04 09:16:00,
2013-04-04 04:21:00,42.1,24.8,30.10,NE,42,0.0,0.1,50,0.00,CLR,,0.00,WeatherDisplay:10.37,2013-04-04 09:21:00,
2013-04-04 04:26:00,42.1,24.8,30.10,NE,43,0.0,0.0,50,0.00,CLR,,0.00,WeatherDisplay:10.37,2013-04-04 09:26:00,
2013-04-04 04:31:00,42.2,24.9,30.11,NE,43,0.0,0.0,50,0.00,CLR,,0.00,WeatherDisplay:10.37,2013-04-04 09:31:00,
2013-04-04 04:36:00,42.2,24.9,30.10,NE,42,0.0,0.0,50,0.00,CLR,,0.00,WeatherDisplay:10.37,2013-04-04 09:36:00,
2013-04-04 04:41:00,42.1,24.8,30.10,NE,43,0.0,0.0,50,0.00,CLR,,0.00,WeatherDisplay:10.37,2013-04-04 09:41:00,
2013-04-04 04:46:00,42.1,24.8,30.10,NE,43,0.0,0.0,50,0.00,CLR,,0.00,WeatherDisplay:10.37,2013-04-04 09:46:00,
2013-04-04 04:51:00,42.0,25.2,30.10,NE,42,0.0,0.0,51,0.00,CLR,,0.00,WeatherDisplay:10.37,2013-04-04 09:51:00,
2013-04-04 04:56:00,42.0,25.2,30.10,NE,42,0.0,0.0,51,0.00,CLR,,0.00,WeatherDisplay:10.37,2013-04-04 09:56:00,
2013-04-04 05:02:00,41.8,25.4,30.10,NE,43,0.0,0.0,52,0.00,CLR,,0.00,WeatherDisplay:10.37,2013-04-04 10:02:00,
2013-04-04 05:07:00,41.6,25.7,30.10,NE,43,0.0,0.0,53,0.00,CLR,,0.00,WeatherDisplay:10.37,2013-04-04 10:07:00,
2013-04-04 05:12:00,41.5,26.1,30.10,NE,42,0.0,0.0,54,0.00,CLR,,0.00,WeatherDisplay:10.37,2013-04-04 10:12:00,
2013-04-04 05:17:00,41.4,26.4,30.10,NE,43,0.0,0.0,55,0.00,CLR,,0.00,WeatherDisplay:10.37,2013-04-04 10:17:00,
2013-04-04 05:23:00,41.2,26.7,30.10,NE,43,0.0,0.1,56,0.00,CLR,,0.00,WeatherDisplay:10.37,2013-04-04 10:23:00,
2013-04-04 05:28:00,41.1,27.0,30.10,NE,42,1.2,0.0,57,0.00,CLR,,0.00,WeatherDisplay:10.37,2013-04-04 10:28:00,
2013-04-04 05:33:00,40.9,27.2,30.10,NE,43,0.0,0.0,58,0.00,CLR,,0.00,WeatherDisplay:10.37,2013-04-04 10:33:00,
2013-04-04 05:38:00,40.7,27.5,30.10,NE,43,1.2,1.2,59,0.00,CLR,,0.00,WeatherDisplay:10.37,2013-04-04 10:38:00,
2013-04-04 05:43:00,40.6,27.4,30.10,NE,43,0.0,0.0,59,0.00,CLR,,0.00,WeatherDisplay:10.37,2013-04-04 10:43:00,
2013-04-04 05:48:00,40.4,27.2,30.11,NE,43,0.0,0.0,59,0.00,CLR,,0.00,WeatherDisplay:10.37,2013-04-04 10:48:00,
2013-04-04 05:53:00,40.3,27.5,30.11,NE,42,0.0,0.0,60,0.00,CLR,,0.00,WeatherDisplay:10.37,2013-04-04 10:53:00,
2013-04-04 05:58:00,40.1,27.3,30.11,NE,43,0.0,0.0,60,0.00,CLR,,0.00,WeatherDisplay:10.37,2013-04-04 10:58:00,
2013-04-04 06:03:00,40.0,27.2,30.10,NE,42,0.0,0.0,60,0.00,CLR,,0.00,WeatherDisplay:10.37,2013-04-04 11:03:00,
2013-04-04 06:08:00,39.8,26.6,30.10,NE,43,0.0,0.0,59,0.00,CLR,,0.00,WeatherDisplay:10.37,2013-04-04 11:08:00,
2013-04-04 06:13:00,39.7,26.5,30.10,NE,42,0.0,0.0,59,0.00,CLR,,0.00,WeatherDisplay:10.37,2013-04-04 11:13:00,
2013-04-04 06:19:00,39.6,26.0,30.10,NE,43,1.2,0.0,58,0.00,CLR,,0.00,WeatherDisplay:10.37,2013-04-04 11:19:00,
2013-04-04 06:24:00,39.5,25.9,30.10,NE,43,0.0,0.0,58,0.00,CLR,,0.00,WeatherDisplay:10.37,2013-04-04 11:24:00,
2013-04-04 06:29:00,39.4,25.8,30.10,NE,42,0.0,0.0,58,0.00,CLR,,0.00,WeatherDisplay:10.37,2013-04-04 11:29:00,
2013-04-04 06:34:00,39.4,25.8,30.10,NE,43,0.0,0.0,58,0.00,CLR,,0.00,WeatherDisplay:10.37,2013-04-04 11:34:00,
2013-04-04 06:39:00,39.2,25.6,30.10,NE,43,0.0,0.0,58,0.00,CLR,,0.00,WeatherDisplay:10.37,2013-04-04 11:39:00,
2013-04-04 06:44:00,39.1,26.0,30.10,NE,42,0.0,0.0,59,0.00,CLR,,0.00,WeatherDisplay:10.37,2013-04-04 11:44:00,
2013-04-04 06:50:00,38.9,25.8,30.10,NE,43,0.0,0.0,59,0.00,CLR,,0.00,WeatherDisplay:10.37,2013-04-04 11:50:00,
2013-04-04 06:55:00,38.9,26.2,30.10,NE,43,0.0,0.0,60,0.00,CLR,,0.00,WeatherDisplay:10.37,2013-04-04 11:55:00,
2013-04-04 07:00:00,38.7,26.0,30.11,NE,43,1.2,1.2,60,0.00,CLR,,0.00,WeatherDisplay:10.37,2013-04-04 12:00:00,
2013-04-04 07:05:00,38.6,26.7,30.11,NE,43,0.0,0.0,62,0.00,CLR,,0.00,WeatherDisplay:10.37,2013-04-04 12:05:00,
2013-04-04 07:10:00,38.5,26.6,30.11,NE,43,0.0,0.0,62,0.00,CLR,,0.00,WeatherDisplay:10.37,2013-04-04 12:10:00,
2013-04-04 07:15:00,38.4,26.5,30.11,NE,42,0.0,0.0,62,0.00,CLR,,0.00,WeatherDisplay:10.37,2013-04-04 12:15:00,
2013-04-04 07:20:00,38.4,26.1,30.11,NE,42,1.2,1.2,61,0.00,CLR,,0.00,WeatherDisplay:10.37,2013-04-04 12:20:00,
2013-04-04 07:25:00,38.6,25.9,30.11,NE,43,0.0,1.0,60,0.00,CLR,,0.00,WeatherDisplay:10.37,2013-04-04 12:25:00,
2013-04-04 07:30:00,38.9,25.8,30.11,NE,42,0.0,0.0,59,0.00,CLR,,0.00,WeatherDisplay:10.37,2013-04-04 12:30:00,
2013-04-04 07:35:00,39.0,25.9,30.11,NE,43,0.0,0.0,59,0.00,CLR,,0.00,WeatherDisplay:10.37,2013-04-04 12:35:00,
2013-04-04 07:40:00,39.1,26.0,30.10,NE,43,0.0,0.0,59,0.00,CLR,,0.00,WeatherDisplay:10.37,2013-04-04 12:40:00,
2013-04-04 07:45:00,39.2,26.1,30.10,NE,43,0.0,0.0,59,0.00,CLR,,0.00,WeatherDisplay:10.37,2013-04-04 12:45:00,
2013-04-04 07:50:00,39.3,25.7,30.10,NE,43,0.0,0.0,58,0.00,CLR,,0.00,WeatherDisplay:10.37,2013-04-04 12:50:00,
2013-04-04 07:55:00,39.3,26.2,30.10,NE,43,0.0,0.0,59,0.00,CLR,,0.00,WeatherDisplay:10.37,2013-04-04 12:55:00,
2013-04-04 08:00:00,39.4,26.2,30.11,NE,43,0.0,0.0,59,0.00,CLR,,0.00,WeatherDisplay:10.37,2013-04-04 13:00:00,
2013-04-04 08:05:00,39.5,26.3,30.10,NE,43,0.0,0.0,59,0.00,CLR,,0.00,WeatherDisplay:10.37,2013-04-04 13:05:00,
2013-04-04 08:10:00,39.7,26.9,30.11,NE,43,0.0,0.0,60,0.00,CLR,,0.00,WeatherDisplay:10.37,2013-04-04 13:10:00,
2013-04-04 08:15:00,39.8,27.0,30.10,NE,43,0.0,0.0,60,0.00,CLR,,0.00,WeatherDisplay:10.37,2013-04-04 13:15:00,
2013-04-04 08:20:00,40.0,26.8,30.10,NE,43,0.0,0.0,59,0.00,CLR,,0.00,WeatherDisplay:10.37,2013-04-04 13:20:00,
2013-04-04 08:25:00,40.1,26.9,30.10,NE,42,0.0,0.0,59,0.00,CLR,,0.00,WeatherDisplay:10.37,2013-04-04 13:25:00,
2013-04-04 08:30:00,40.2,27.4,30.10,NE,43,0.0,0.0,60,0.00,CLR,,0.00,WeatherDisplay:10.37,2013-04-04 13:30:00,
2013-04-04 08:35:00,40.3,27.5,30.10,NE,43,0.0,0.0,60,0.00,CLR,,0.00,WeatherDisplay:10.37,2013-04-04 13:35:00,
2013-04-04 08:40:00,40.6,28.2,30.10,NE,43,1.2,1.2,61,0.00,CLR,,0.00,WeatherDisplay:10.37,2013-04-04 13:40:00,
2013-04-04 08:45:00,41.0,27.8,30.10,NE,43,0.0,1.0,59,0.00,CLR,,0.00,WeatherDisplay:10.37,2013-04-04 13:45:00,
2013-04-04 08:50:00,41.7,28.0,30.10,NE,42,0.0,0.0,58,0.00,CLR,,0.00,WeatherDisplay:10.37,2013-04-04 13:50:00,
2013-04-04 08:55:00,42.3,28.6,30.10,NE,43,0.0,1.0,58,0.00,CLR,,0.00,WeatherDisplay:10.37,2013-04-04 13:55:00,
2013-04-04 09:00:00,43.0,27.5,30.10,NE,43,2.3,0.0,54,0.00,CLR,,0.00,WeatherDisplay:10.37,2013-04-04 14:00:00,
2013-04-04 09:05:00,43.6,28.0,30.09,NE,42,1.2,1.2,54,0.00,CLR,,0.00,WeatherDisplay:10.37,2013-04-04 14:05:00,
2013-04-04 09:10:00,44.1,28.5,30.09,NE,43,0.0,0.0,54,0.00,CLR,,0.00,WeatherDisplay:10.37,2013-04-04 14:10:00,
2013-04-04 09:15:00,45.0,28.9,30.09,NE,43,0.0,0.0,53,0.00,CLR,,0.00,WeatherDisplay:10.37,2013-04-04 14:15:00,
2013-04-04 09:20:00,46.2,29.1,30.09,NE,42,2.3,2.3,51,0.00,CLR,,0.00,WeatherDisplay:10.37,2013-04-04 14:20:00,
2013-04-04 09:25:00,47.0,28.3,30.09,NE,43,3.5,3.5,48,0.00,CLR,,0.00,WeatherDisplay:10.37,2013-04-04 14:25:00,
2013-04-04 09:30:00,47.6,28.9,30.08,NE,43,1.2,0.0,48,0.00,CLR,,0.00,WeatherDisplay:10.37,2013-04-04 14:30:00,
2013-04-04 09:35:00,48.3,28.5,30.08,NE,42,2.3,2.3,46,0.00,CLR,,0.00,WeatherDisplay:10.37,2013-04-04 14:35:00,
2013-04-04 09:40:00,48.7,28.8,30.08,NE,43,0.0,3.0,46,0.00,CLR,,0.00,WeatherDisplay:10.37,2013-04-04 14:40:00,
2013-04-04 09:45:00,48.2,27.3,30.08,NE,42,1.2,1.2,44,0.00,CLR,,0.00,WeatherDisplay:10.37,2013-04-04 14:45:00,
2013-04-04 09:50:00,48.0,27.1,30.08,NE,43,2.0,5.0,44,0.00,CLR,,0.00,WeatherDisplay:10.37,2013-04-04 14:50:00,
2013-04-04 09:55:00,47.6,26.7,30.08,NE,41,5.8,5.8,44,0.00,CLR,,0.00,WeatherDisplay:10.37,2013-04-04 14:55:00,
2013-04-04 10:00:00,47.7,27.4,30.08,NE,41,2.3,2.3,45,0.00,CLR,,0.00,WeatherDisplay:10.37,2013-04-04 15:00:00,
2013-04-04 10:05:00,48.1,27.2,30.08,NE,41,2.3,2.3,44,0.00,CLR,,0.00,WeatherDisplay:10.37,2013-04-04 15:05:00,
2013-04-04 10:10:00,48.7,27.7,30.09,NE,41,4.0,4.0,44,0.00,CLR,,0.00,WeatherDisplay:10.37,2013-04-04 15:10:00,
2013-04-04 10:15:00,49.1,27.5,30.09,NE,41,5.8,5.8,43,0.00,CLR,,0.00,WeatherDisplay:10.37,2013-04-04 15:15:00,
2013-04-04 10:20:00,49.4,28.4,30.09,NE,40,1.0,7.0,44,0.00,CLR,,0.00,WeatherDisplay:10.37,2013-04-04 15:20:00,
2013-04-04 10:25:00,50.1,28.4,30.08,NE,36,5.8,5.8,43,0.00,CLR,,0.00,WeatherDisplay:10.37,2013-04-04 15:25:00,
2013-04-04 10:30:00,50.2,28.6,30.08,NE,35,1.0,7.0,43,0.00,CLR,,0.00,WeatherDisplay:10.37,2013-04-04 15:30:00,
2013-04-04 10:35:00,50.9,28.6,30.08,NNE,30,6.0,6.0,42,0.00,CLR,,0.00,WeatherDisplay:10.37,2013-04-04 15:35:00,
2013-04-04 10:40:00,51.2,28.9,30.08,NNE,29,4.6,4.6,42,0.00,CLR,,0.00,WeatherDisplay:10.37,2013-04-04 15:40:00,
2013-04-04 10:45:00,51.4,28.5,30.09,NNE,24,3.5,3.5,41,0.00,CLR,,0.00,WeatherDisplay:10.37,2013-04-04 15:45:00,
2013-04-04 10:50:00,51.2,28.9,30.09,NNE,24,10.4,10.4,42,0.00,CLR,,0.00,WeatherDisplay:10.37,2013-04-04 15:50:00,
2013-04-04 10:55:00,51.2,28.9,30.08,NNE,24,1.2,0.0,42,0.00,CLR,,0.00,WeatherDisplay:10.37,2013-04-04 15:55:00,
2013-04-04 11:01:00,52.3,28.1,30.08,NNE,24,1.2,1.2,39,0.00,CLR,,0.00,WeatherDisplay:10.37,2013-04-04 16:01:00,
2013-04-04 11:06:00,52.9,28.0,30.08,NNE,14,6.9,6.9,38,0.00,CLR,,0.00,WeatherDisplay:10.37,2013-04-04 16:06:00,
2013-04-04 11:11:00,52.3,28.1,30.08,NNE,13,5.0,5.0,39,0.00,CLR,,0.00,WeatherDisplay:10.37,2013-04-04 16:11:00,
2013-04-04 11:16:00,52.6,28.3,30.08,North,11,2.3,2.3,39,0.00,CLR,,0.00,WeatherDisplay:10.37,2013-04-04 16:16:00,
2013-04-04 11:22:00,52.7,27.8,30.08,North,360,8.1,8.1,38,0.00,CLR,,0.00,WeatherDisplay:10.37,2013-04-04 16:22:00,
2013-04-04 11:27:00,52.6,27.0,30.08,North,360,8.1,8.1,37,0.00,CLR,,0.00,WeatherDisplay:10.37,2013-04-04 16:27:00,
2013-04-04 11:32:00,51.7,26.9,30.08,North,360,6.9,6.9,38,0.00,CLR,,0.00,WeatherDisplay:10.37,2013-04-04 16:32:00,
2013-04-04 11:37:00,51.6,27.4,30.08,North,5,5.8,5.8,39,0.00,CLR,,0.00,WeatherDisplay:10.37,2013-04-04 16:37:00,
2013-04-04 11:42:00,52.8,27.9,30.08,North,5,2.3,2.3,38,0.00,CLR,,0.00,WeatherDisplay:10.37,2013-04-04 16:42:00,
2013-04-04 11:47:00,53.7,29.3,30.08,North,360,1.2,1.2,39,0.00,CLR,,0.00,WeatherDisplay:10.37,2013-04-04 16:47:00,
2013-04-04 11:52:00,53.9,28.2,30.07,North,360,3.5,3.5,37,0.00,CLR,,0.00,WeatherDisplay:10.37,2013-04-04 16:52:00,
2013-04-04 11:57:00,54.1,29.0,30.07,North,360,5.0,5.0,38,0.00,CLR,,0.00,WeatherDisplay:10.37,2013-04-04 16:57:00,
2013-04-04 12:02:00,53.8,28.1,30.07,North,5,7.0,7.0,37,0.00,CLR,,0.00,WeatherDisplay:10.37,2013-04-04 17:02:00,
2013-04-04 12:07:00,54.3,30.5,30.07,North,360,4.0,4.0,40,0.00,CLR,,0.00,WeatherDisplay:10.37,2013-04-04 17:07:00,
2013-04-04 12:12:00,53.9,28.2,30.07,North,5,5.8,5.8,37,0.00,CLR,,0.00,WeatherDisplay:10.37,2013-04-04 17:12:00,
2013-04-04 12:17:00,53.2,28.9,30.07,North,360,3.5,3.5,39,0.00,CLR,,0.00,WeatherDisplay:10.37,2013-04-04 17:17:00,
2013-04-04 12:22:00,53.7,28.0,30.07,North,5,3.5,3.5,37,0.00,CLR,,0.00,WeatherDisplay:10.37,2013-04-04 17:22:00,
2013-04-04 12:27:00,54.5,30.0,30.06,North,360,3.0,3.0,39,0.00,CLR,,0.00,WeatherDisplay:10.37,2013-04-04 17:27:00,
2013-04-04 12:32:00,56.0,30.7,30.06,North,360,3.5,3.5,38,0.00,CLR,,0.00,WeatherDisplay:10.37,2013-04-04 17:32:00,
2013-04-04 12:37:00,56.3,29.7,30.06,North,360,8.1,8.1,36,0.00,CLR,,0.00,WeatherDisplay:10.37,2013-04-04 17:37:00,
2013-04-04 12:42:00,56.0,29.4,30.06,North,360,5.8,5.8,36,0.00,CLR,,0.00,WeatherDisplay:10.37,2013-04-04 17:42:00,
2013-04-04 12:48:00,56.0,28.7,30.06,North,360,10.4,10.4,35,0.00,CLR,,0.00,WeatherDisplay:10.37,2013-04-04 17:48:00,
2013-04-04 12:53:00,55.0,28.5,30.05,North,360,3.5,3.5,36,0.00,CLR,,0.00,WeatherDisplay:10.37,2013-04-04 17:53:00,
2013-04-04 12:58:00,55.3,29.4,30.05,North,355,3.5,3.5,37,0.00,CLR,,0.00,WeatherDisplay:10.37,2013-04-04 17:58:00,
2013-04-04 13:03:00,55.7,29.8,30.05,North,355,5.8,5.8,37,0.00,CLR,,0.00,WeatherDisplay:10.37,2013-04-04 18:03:00,
2013-04-04 13:08:00,55.4,29.5,30.05,North,355,3.5,3.5,37,0.00,CLR,,0.00,WeatherDisplay:10.37,2013-04-04 18:08:00,
2013-04-04 13:13:00,55.9,28.6,30.04,North,355,9.0,9.0,35,0.00,CLR,,0.00,WeatherDisplay:10.37,2013-04-04 18:13:00,
2013-04-04 13:18:00,55.9,28.6,30.04,North,355,5.8,5.8,35,0.00,CLR,,0.00,WeatherDisplay:10.37,2013-04-04 18:18:00,
2013-04-04 13:23:00,56.1,28.8,30.04,North,355,5.8,5.8,35,0.00,CLR,,0.00,WeatherDisplay:10.37,2013-04-04 18:23:00,
2013-04-04 13:28:00,56.2,28.9,30.04,North,355,6.9,6.9,35,0.00,CLR,,0.00,WeatherDisplay:10.37,2013-04-04 18:28:00,
2013-04-04 13:33:00,56.0,29.4,30.04,North,355,6.9,6.9,36,0.00,CLR,,0.00,WeatherDisplay:10.37,2013-04-04 18:33:00,
2013-04-04 13:38:00,56.5,30.5,30.03,North,355,2.3,2.3,37,0.00,CLR,,0.00,WeatherDisplay:10.37,2013-04-04 18:38:00,
2013-04-04 13:43:00,57.0,29.6,30.03,North,355,3.5,3.5,35,0.00,CLR,,0.00,WeatherDisplay:10.37,2013-04-04 18:43:00,
2013-04-04 13:48:00,57.5,30.0,30.03,North,355,4.6,4.6,35,0.00,CLR,,0.00,WeatherDisplay:10.37,2013-04-04 18:48:00,
2013-04-04 13:53:00,58.5,30.9,30.03,North,355,10.0,10.0,35,0.00,CLR,,0.00,WeatherDisplay:10.37,2013-04-04 18:53:00,
2013-04-04 13:58:00,58.3,30.0,30.03,North,355,5.8,5.8,34,0.00,CLR,,0.00,WeatherDisplay:10.37,2013-04-04 18:58:00,
2013-04-04 14:03:00,58.8,31.2,30.03,North,355,4.6,4.6,35,0.00,CLR,,0.00,WeatherDisplay:10.37,2013-04-04 19:03:00,
2013-04-04 14:08:00,59.6,29.7,30.02,North,355,4.6,4.6,32,0.00,CLR,,0.00,WeatherDisplay:10.37,2013-04-04 19:08:00,
2013-04-04 14:13:00,60.4,30.4,30.02,North,355,4.6,4.6,32,0.00,CLR,,0.00,WeatherDisplay:10.37,2013-04-04 19:13:00,
2013-04-04 14:18:00,59.3,28.6,30.02,North,355,4.6,4.6,31,0.00,CLR,,0.00,WeatherDisplay:10.37,2013-04-04 19:18:00,
2013-04-04 14:23:00,59.0,28.4,30.02,North,355,6.9,6.9,31,0.00,CLR,,0.00,WeatherDisplay:10.37,2013-04-04 19:23:00,
2013-04-04 14:28:00,58.1,28.4,30.01,North,355,7.0,7.0,32,0.00,CLR,,0.00,WeatherDisplay:10.37,2013-04-04 19:28:00,
2013-04-04 14:33:00,58.6,31.0,30.01,North,350,4.6,4.6,35,0.00,CLR,,0.00,WeatherDisplay:10.37,2013-04-04 19:33:00,
2013-04-04 14:38:00,59.8,30.6,30.00,North,350,3.5,3.5,33,0.00,CLR,,0.00,WeatherDisplay:10.37,2013-04-04 19:38:00,
2013-04-04 14:43:00,60.7,31.4,30.00,North,350,1.2,1.2,33,0.00,CLR,,0.00,WeatherDisplay:10.37,2013-04-04 19:43:00,
2013-04-04 14:48:00,61.1,30.2,30.00,North,349,3.5,3.5,31,0.00,CLR,,0.00,WeatherDisplay:10.37,2013-04-04 19:48:00,
2013-04-04 14:54:00,60.8,30.7,30.00,North,349,3.5,3.5,32,0.00,CLR,,0.00,WeatherDisplay:10.37,2013-04-04 19:54:00,
2013-04-04 14:59:00,60.8,29.9,30.00,North,349,2.3,2.3,31,0.00,CLR,,0.00,WeatherDisplay:10.37,2013-04-04 19:59:00,
2013-04-04 15:04:00,61.1,31.0,30.00,North,349,3.5,3.5,32,0.00,CLR,,0.00,WeatherDisplay:10.37,2013-04-04 20:04:00,
2013-04-04 15:09:00,61.4,30.5,29.99,North,349,5.0,5.0,31,0.00,CLR,,0.00,WeatherDisplay:10.37,2013-04-04 20:09:00,
2013-04-04 15:14:00,61.5,29.7,29.99,North,349,3.5,3.5,30,0.00,CLR,,0.00,WeatherDisplay:10.37,2013-04-04 20:14:00,
2013-04-04 15:19:00,61.2,28.7,29.99,North,349,10.4,10.4,29,0.00,CLR,,0.00,WeatherDisplay:10.37,2013-04-04 20:19:00,
2013-04-04 15:25:00,60.5,28.9,29.99,North,350,3.0,3.0,30,0.00,CLR,,0.00,WeatherDisplay:10.37,2013-04-04 20:25:00,
2013-04-04 15:30:00,60.6,28.1,29.99,North,349,3.5,3.5,29,0.00,CLR,,0.00,WeatherDisplay:10.37,2013-04-04 20:30:00,
2013-04-04 15:35:00,60.8,29.1,29.98,North,350,3.5,3.5,30,0.00,CLR,,0.00,WeatherDisplay:10.37,2013-04-04 20:35:00,
2013-04-04 15:40:00,61.2,28.7,29.98,North,350,5.8,5.8,29,0.00,CLR,,0.00,WeatherDisplay:10.37,2013-04-04 20:40:00,
2013-04-04 15:45:00,62.0,29.3,29.98,North,349,3.5,3.5,29,0.00,CLR,,0.00,WeatherDisplay:10.37,2013-04-04 20:45:00,
2013-04-04 15:50:00,62.7,29.1,29.98,North,349,1.2,1.2,28,0.00,CLR,,0.00,WeatherDisplay:10.37,2013-04-04 20:50:00,
2013-04-04 15:55:00,62.2,29.5,29.97,North,349,6.9,6.9,29,0.00,CLR,,0.00,WeatherDisplay:10.37,2013-04-04 20:55:00,
2013-04-04 16:00:00,61.5,29.7,29.98,North,349,2.3,2.3,30,0.00,CLR,,0.00,WeatherDisplay:10.37,2013-04-04 21:00:00,
2013-04-04 16:05:00,61.5,29.7,29.98,North,349,5.0,5.0,30,0.00,CLR,,0.00,WeatherDisplay:10.37,2013-04-04 21:05:00,
2013-04-04 16:10:00,61.1,28.6,29.98,North,349,4.0,4.0,29,0.00,CLR,,0.00,WeatherDisplay:10.37,2013-04-04 21:10:00,
2013-04-04 16:15:00,60.9,29.2,29.98,North,349,7.0,7.0,30,0.00,CLR,,0.00,WeatherDisplay:10.37,2013-04-04 21:15:00,
2013-04-04 16:20:00,61.5,29.7,29.97,NNW,346,3.5,3.5,30,0.00,CLR,,0.00,WeatherDisplay:10.37,2013-04-04 21:20:00,
2013-04-04 16:25:00,62.2,30.4,29.97,NNW,347,0.0,0.0,30,0.00,CLR,,0.00,WeatherDisplay:10.37,2013-04-04 21:25:00,
2013-04-04 16:30:00,62.7,30.8,29.97,NNW,347,4.6,4.6,30,0.00,CLR,,0.00,WeatherDisplay:10.37,2013-04-04 21:30:00,
2013-04-04 16:35:00,61.8,29.2,29.97,NNW,346,3.5,3.5,29,0.00,CLR,,0.00,WeatherDisplay:10.37,2013-04-04 21:35:00,
2013-04-04 16:40:00,61.6,29.8,29.97,NNW,346,4.6,4.6,30,0.00,CLR,,0.00,WeatherDisplay:10.37,2013-04-04 21:40:00,
2013-04-04 16:45:00,61.8,30.8,29.97,NNW,347,2.3,2.3,31,0.00,CLR,,0.00,WeatherDisplay:10.37,2013-04-04 21:45:00,
2013-04-04 16:50:00,62.6,30.7,29.97,NNW,347,1.2,1.2,30,0.00,CLR,,0.00,WeatherDisplay:10.37,2013-04-04 21:50:00,
2013-04-04 16:55:00,62.7,30.8,29.97,NNW,346,1.2,1.2,30,0.00,CLR,,0.00,WeatherDisplay:10.37,2013-04-04 21:55:00,
2013-04-04 17:00:00,62.6,31.5,29.97,NNW,346,6.9,6.9,31,0.00,CLR,,0.00,WeatherDisplay:10.37,2013-04-04 22:00:00,
2013-04-04 17:05:00,62.4,32.1,29.97,NNW,346,2.3,2.3,32,0.00,CLR,,0.00,WeatherDisplay:10.37,2013-04-04 22:05:00,
2013-04-04 17:10:00,62.3,31.3,29.97,NNW,347,6.9,6.9,31,0.00,CLR,,0.00,WeatherDisplay:10.37,2013-04-04 22:10:00,
2013-04-04 17:16:00,62.1,31.9,29.97,NNW,346,2.3,2.3,32,0.00,CLR,,0.00,WeatherDisplay:10.37,2013-04-04 22:16:00,
2013-04-04 17:21:00,62.0,31.0,29.97,NNW,347,4.6,4.6,31,0.00,CLR,,0.00,WeatherDisplay:10.37,2013-04-04 22:21:00,
2013-04-04 17:27:00,61.7,30.7,29.97,NNW,346,3.5,3.5,31,0.00,CLR,,0.00,WeatherDisplay:10.37,2013-04-04 22:27:00,
2013-04-04 17:32:00,61.9,30.9,29.96,NNW,347,0.0,0.1,31,0.00,CLR,,0.00,WeatherDisplay:10.37,2013-04-04 22:32:00,
2013-04-04 17:37:00,62.2,32.0,29.97,NNW,346,4.0,4.0,32,0.00,CLR,,0.00,WeatherDisplay:10.37,2013-04-04 22:37:00,
2013-04-04 17:42:00,62.2,32.0,29.97,NNW,346,3.5,3.5,32,0.00,CLR,,0.00,WeatherDisplay:10.37,2013-04-04 22:42:00,
2013-04-04 17:47:00,62.0,32.5,29.97,NNW,346,4.6,4.6,33,0.00,CLR,,0.00,WeatherDisplay:10.37,2013-04-04 22:47:00,
2013-04-04 17:52:00,62.1,31.9,29.97,NNW,347,2.3,2.3,32,0.00,CLR,,0.00,WeatherDisplay:10.37,2013-04-04 22:52:00,
2013-04-04 17:57:00,62.2,32.7,29.97,NNW,347,4.6,4.6,33,0.00,CLR,,0.00,WeatherDisplay:10.37,2013-04-04 22:57:00,
2013-04-04 18:02:00,62.4,32.9,29.97,NNW,346,2.3,2.3,33,0.00,CLR,,0.00,WeatherDisplay:10.37,2013-04-04 23:02:00,
2013-04-04 18:07:00,62.3,32.8,29.97,NNW,347,2.3,2.3,33,0.00,CLR,,0.00,WeatherDisplay:10.37,2013-04-04 23:07:00,
2013-04-04 18:12:00,62.3,32.8,29.97,NNW,347,1.0,1.0,33,0.00,CLR,,0.00,WeatherDisplay:10.37,2013-04-04 23:12:00,
2013-04-04 18:17:00,62.6,33.1,29.97,NNW,347,3.5,3.5,33,0.00,CLR,,0.00,WeatherDisplay:10.37,2013-04-04 23:17:00,
2013-04-04 18:22:00,62.6,33.1,29.97,NNW,347,3.5,3.5,33,0.00,CLR,,0.00,WeatherDisplay:10.37,2013-04-04 23:22:00,
2013-04-04 18:27:00,62.3,32.8,29.97,NNW,346,2.3,2.3,33,0.00,CLR,,0.00,WeatherDisplay:10.37,2013-04-04 23:27:00,
2013-04-04 18:32:00,62.2,33.5,29.97,NNW,347,2.3,2.3,34,0.00,CLR,,0.00,WeatherDisplay:10.37,2013-04-04 23:32:00,
2013-04-04 18:37:00,62.0,32.5,29.97,NNW,347,3.5,3.5,33,0.00,CLR,,0.00,WeatherDisplay:10.37,2013-04-04 23:37:00,
2013-04-04 18:42:00,61.6,32.9,29.97,NNW,346,6.9,6.9,34,0.00,CLR,,0.00,WeatherDisplay:10.37,2013-04-04 23:42:00,
2013-04-04 18:47:00,61.3,32.7,29.97,NNW,347,1.2,1.2,34,0.00,CLR,,0.00,WeatherDisplay:10.37,2013-04-04 23:47:00,
2013-04-04 18:52:00,61.0,32.4,29.97,NNW,347,3.5,3.5,34,0.00,CLR,,0.00,WeatherDisplay:10.37,2013-04-04 23:52:00,
2013-04-04 18:57:00,60.8,32.2,29.97,NNW,346,3.5,3.5,34,0.00,CLR,,0.00,WeatherDisplay:10.37,2013-04-04 23:57:00,
2013-04-04 19:02:00,60.7,32.1,29.97,NNW,347,2.3,2.3,34,0.00,CLR,,0.00,WeatherDisplay:10.37,2013-04-05 00:02:00,
2013-04-04 19:07:00,60.6,32.8,29.97,NNW,347,1.2,1.2,35,0.00,CLR,,0.00,WeatherDisplay:10.37,2013-04-05 00:07:00,
2013-04-04 19:12:00,60.5,32.7,29.97,NNW,346,0.0,0.0,35,0.00,CLR,,0.00,WeatherDisplay:10.37,2013-04-05 00:12:00,
2013-04-04 19:17:00,60.4,32.6,29.97,NNW,346,1.2,0.0,35,0.00,CLR,,0.00,WeatherDisplay:10.37,2013-04-05 00:17:00,
2013-04-04 19:22:00,60.2,32.4,29.97,NNW,347,2.3,0.0,35,0.00,CLR,,0.00,WeatherDisplay:10.37,2013-04-05 00:22:00,
2013-04-04 19:27:00,60.1,32.3,29.97,NNW,347,0.0,0.0,35,0.00,CLR,,0.00,WeatherDisplay:10.37,2013-04-05 00:27:00,
2013-04-04 19:32:00,59.8,32.1,29.97,NNW,346,3.5,3.5,35,0.00,CLR,,0.00,WeatherDisplay:10.37,2013-04-05 00:32:00,
2013-04-04 19:37:00,59.6,31.9,29.97,NNW,347,1.2,1.2,35,0.00,CLR,,0.00,WeatherDisplay:10.37,2013-04-05 00:37:00,